• Join FlightAware (Why Join?)
  • Login
  • US Flag 
12:05PM EDT


 

Airport Tracker/Info


-or-


 

Live Flight TrackerFlight Track Log ✈ AAL1491 ✈ 11-May-2013 ✈ KDCA - KDFW

Flight Track Log - Related Links

Times and Time Zones

All times are in EDT time to prevent confusion due to time zone crossing. See the AAL1491 flight status page for this flight to view local times or setup timezone preferences in your user account.

Time Position Orientation Groundspeed Altitude Reporting Facility
EDT Latitude Longitude Course Direction KTS MPH feet Rate Location/Type
11:19AM 38.7833 -77.0333 290° West 209 241 2,600  Level Potomac TRACON
11:20AM 39.1034 -77.2701 322° Northwest  Level FlightAware Approximate
11:20AM 38.7500 -77.0667 218° Southwest 249 287 5,800  Level Potomac TRACON
11:20AM 38.7500 -77.1500 270° West 263 303 8,600 2,640 Climbing Potomac TRACON
11:21AM 39.1867 -77.3505 326° Northwest  Level FlightAware Approximate
11:21AM 38.8000 -77.2167 314° West 311 358 10,900  Level Potomac TRACON
11:22AM 39.2762 -77.4272 326° Northwest  Level FlightAware Approximate
11:22AM 38.9000 -77.2833 333° Northwest 346 398 13,800  Level Potomac TRACON
11:23AM 39.3673 -77.5007 322° Northwest  Level FlightAware Approximate
11:23AM 38.9833 -77.3667 322° Northwest 379 436 15,900  Level Potomac TRACON
11:24AM 39.4510 -77.5869 290° West  Level FlightAware Approximate
11:26AM 39.1811 -77.5408 326° Northwest 386 444 17,000  Level Washington Center
11:27AM 39.2653 -77.6156 326° Northwest 375 432 18,400 1,740 Climbing Washington Center
11:28AM 39.3536 -77.6931 326° Northwest 375 432 20,500 2,040 Climbing Washington Center
11:29AM 39.4439 -77.7764 325° Northwest 381 438 22,600 2,040 Climbing Washington Center
11:30AM 39.5258 -77.8569 323° Northwest 401 461 24,700 1,680 Climbing Washington Center
11:32AM 39.6331 -78.1706 294° West 396 456 28,300 1,380 Climbing Cleveland Center
11:33AM 39.6756 -78.3119 291° West 409 471 29,500 840 Climbing Cleveland Center
11:34AM 39.7181 -78.4564 291° West 427 491 30,000 780 Climbing Cleveland Center
11:35AM 39.7603 -78.6008 291° West 432 497 31,100 1,620 Climbing Cleveland Center
11:36AM 39.8003 -78.7564 289° West 420 483 33,300 1,440 Climbing Cleveland Center
11:37AM 39.8233 -78.8936 282° West 409 471 34,000 300 Climbing Cleveland Center
11:38AM 39.8294 -79.0342 273° West 398 458 34,000  Level Cleveland Center
11:39AM 39.8375 -79.1772 274° West 393 452 34,000  Level Cleveland Center
11:40AM 39.8414 -79.3206 272° West 393 452 34,000  Level Cleveland Center
11:41AM 39.8450 -79.4636 272° West 393 452 34,000  Level Cleveland Center
11:42AM 39.8483 -79.6097 272° West 403 464 34,000  Level Cleveland Center
11:43AM 39.8514 -79.7528 272° West 403 464 34,000  Level Cleveland Center
11:44AM 39.8544 -79.8961 272° West 403 464 34,000  Level Cleveland Center
11:45AM 39.8575 -80.0422 272° West 403 464 34,000  Level Cleveland Center
11:46AM 39.8600 -80.1692 272° West 403 464 34,000  Level Cleveland Center
11:47AM 39.8625 -80.3100 271° West 403 464 34,000  Level Cleveland Center
11:48AM 39.8669 -80.4558 272° West 403 464 34,000  Level Cleveland Center
11:49AM 39.8692 -80.5967 271° West 403 464 34,000  Level Cleveland Center
11:50AM 39.8711 -80.7400 271° West 403 464 34,000  Level Cleveland Center
11:51AM 39.8728 -80.8833 271° West 403 464 34,000  Level Cleveland Center
11:53AM 39.8719 -81.1114 270° West 402 463 34,000  Level Indianapolis Center
11:54AM 39.8736 -81.2583 271° West 407 468 34,000  Level Indianapolis Center
11:55AM 39.8753 -81.4031 271° West 402 463 34,000 -60 Level Indianapolis Center
11:56AM 39.8719 -81.5719 269° West 402 463 33,900 -60 Descending Indianapolis Center
11:57AM 39.8350 -81.7106 251° West 401 461 33,900  Level Indianapolis Center
11:58AM 39.7961 -81.8467 250° West 398 458 33,900  Level Indianapolis Center
11:59AM 39.7578 -81.9814 250° West 396 456 33,900  Level Indianapolis Center
12:00PM 39.7206 -82.1144 250° West 390 449 33,900  Level Indianapolis Center
12:01PM 39.6817 -82.2481 249° West 391 450 33,900  Level Indianapolis Center
12:02PM 39.6433 -82.3822 250° West 392 451 33,900  Level Indianapolis Center
12:03PM 39.6047 -82.5150 249° West 391 450 33,900  Level Indianapolis Center
12:04PM 39.5656 -82.6492 249° West 393 452 33,900  Level Indianapolis Center
12:05PM 39.5258 -82.7831 249° West 393 452 33,900  Level Indianapolis Center
12:06PM 39.4878 -82.9158 250° West 391 450 33,900  Level Indianapolis Center
12:07PM 39.4481 -83.0494 249° West 392 451 34,000  Climbing Indianapolis Center
12:08PM 39.4083 -83.1822 249° West 391 450 33,900 -60 Descending Indianapolis Center
12:09PM 39.3683 -83.3169 249° West 395 455 33,900  Level Indianapolis Center
12:10PM 39.3275 -83.4511 249° West 395 455 33,900  Level Indianapolis Center
12:11PM 39.2881 -83.5853 249° West 394 453 33,900  Level Indianapolis Center
12:12PM 39.2403 -83.7414 248° West 396 456 33,900  Level Indianapolis Center
12:13PM 39.1997 -83.8747 249° West 395 455 34,000  Climbing Indianapolis Center
12:14PM 39.1592 -84.0086 249° West 396 456 34,000 -60 Level Indianapolis Center
12:15PM 39.1172 -84.1433 248° West 399 459 33,900 -60 Descending Indianapolis Center
12:16PM 39.0753 -84.2772 248° West 400 460 33,900  Level Indianapolis Center
12:17PM 39.0336 -84.4103 248° West 398 458 33,900  Level Indianapolis Center
12:18PM 38.9917 -84.5456 248° West 400 460 33,900  Level Indianapolis Center
12:19PM 38.9500 -84.6800 248° West 402 463 33,900  Level Indianapolis Center
12:20PM 38.9039 -84.8244 248° West 403 464 34,000  Climbing Indianapolis Center
12:21PM 38.8617 -84.9567 248° West 402 463 34,000  Level Indianapolis Center
12:23PM 38.8206 -85.0906 249° West 404 465 34,000  Level Indianapolis Center
12:24PM 38.7772 -85.2225 247° West 403 464 34,000  Level Indianapolis Center
12:25PM 38.7350 -85.3564 248° West 404 465 34,000  Level Indianapolis Center
12:26PM 38.6919 -85.4881 247° West 403 464 34,000  Level Indianapolis Center
12:27PM 38.6494 -85.6211 248° West 404 465 34,000  Level Indianapolis Center
12:28PM 38.6008 -85.7689 247° West 407 468 34,000  Level Indianapolis Center
12:29PM 38.5572 -85.9028 247° West 407 468 34,000  Level Indianapolis Center
12:30PM 38.5122 -86.0372 247° West 409 471 34,000  Level Indianapolis Center
12:31PM 38.4681 -86.1719 247° West 409 471 34,000  Level Indianapolis Center
12:32PM 38.4233 -86.3050 247° West 407 468 34,000  Level Indianapolis Center
12:33PM 38.3794 -86.4386 247° West 407 468 34,000  Level Indianapolis Center
12:34PM 38.3347 -86.5714 247° West 406 467 34,000  Level Indianapolis Center
12:35PM 38.2897 -86.7028 246° West 402 463 34,000  Level Indianapolis Center
12:36PM 38.2444 -86.8369 247° West 406 467 34,000  Level Indianapolis Center
12:37PM 38.1989 -86.9706 247° West 404 465 34,000  Level Indianapolis Center
12:38PM 38.1528 -87.1061 247° West 406 467 34,000  Level Indianapolis Center
12:39PM 38.1072 -87.2397 247° West 405 466 34,000  Level Indianapolis Center
12:40PM 38.0614 -87.3717 246° West 405 466 34,000  Level Indianapolis Center
12:41PM 38.0161 -87.5031 246° West 404 465 34,000  Level Indianapolis Center
12:42PM 37.9614 -87.6606 246° West 404 465 34,000  Level Indianapolis Center
12:43PM 37.9161 -87.7906 246° West 402 463 34,000  Level Indianapolis Center
12:44PM 37.8700 -87.9206 246° West 402 463 34,000  Level Indianapolis Center
12:45PM 37.8250 -88.0478 246° West 396 456 34,000  Level Indianapolis Center
12:46PM 37.7800 -88.1744 246° West 395 455 34,000  Level Indianapolis Center
12:47PM 37.7339 -88.3031 246° West 399 459 34,000  Level Indianapolis Center
12:48PM 37.6883 -88.4297 246° West 395 455 34,000  Level Indianapolis Center
12:49PM 37.6619 -88.5208 250° West 398 458 34,000  Level Memphis Center
12:50PM 37.6181 -88.6500 247° West 404 465 34,000  Level Memphis Center
12:51PM 37.5697 -88.7742 244° Southwest 404 465 34,000  Level Memphis Center
12:52PM 37.5253 -88.9006 246° West 404 465 34,000  Level Memphis Center
12:53PM 37.4767 -89.0267 244° Southwest 404 465 34,000  Level Memphis Center
12:54PM 37.4303 -89.1503 245° Southwest 404 465 34,000  Level Memphis Center
12:55PM 37.3856 -89.2764 246° West 404 465 34,000  Level Memphis Center
12:56PM 37.3386 -89.4022 245° Southwest 404 465 34,000  Level Memphis Center
12:57PM 37.2917 -89.5278 245° Southwest 399 459 34,000  Level Memphis Center
12:58PM 37.2467 -89.6533 246° West 404 465 34,000  Level Memphis Center
12:59PM 37.1992 -89.7761 244° Southwest 399 459 34,000  Level Memphis Center
01:00PM 37.1497 -89.9014 244° Southwest 399 459 34,000  Level Memphis Center
01:01PM 37.1022 -90.0292 245° Southwest 399 459 34,000  Level Memphis Center
01:02PM 37.0547 -90.1567 245° Southwest 404 465 34,000  Level Memphis Center
01:03PM 37.0069 -90.2842 245° Southwest 404 465 34,000 -180 Level Memphis Center
01:04PM 36.9589 -90.4114 245° Southwest 404 465 33,700 -840 Descending Memphis Center
01:05PM 36.9067 -90.5411 243° Southwest 404 465 32,400 -900 Descending Memphis Center
01:06PM 36.8564 -90.6706 244° Southwest 409 471 32,000 -240 Descending Memphis Center
01:07PM 36.8061 -90.8000 244° Southwest 409 471 32,000  Level Memphis Center
01:08PM 36.7556 -90.9292 244° Southwest 416 479 32,000  Level Memphis Center
01:09PM 36.7028 -91.0633 244° Southwest 421 484 32,000  Level Memphis Center
01:10PM 36.6542 -91.1897 244° Southwest 416 479 32,000  Level Memphis Center
01:11PM 36.6031 -91.3236 245° Southwest 423 487 32,000  Level Memphis Center
01:12PM 36.5478 -91.4572 243° Southwest 423 487 32,000  Level Memphis Center
01:13PM 36.4967 -91.5883 244° Southwest 423 487 32,000  Level Memphis Center
01:14PM 36.4408 -91.7242 243° Southwest 423 487 32,000  Level Memphis Center
01:15PM 36.3936 -91.8547 246° West 423 487 32,000  Level Memphis Center
01:16PM 36.3397 -91.9853 243° Southwest 423 487 32,000  Level Memphis Center
01:17PM 36.2881 -92.1156 244° Southwest 423 487 32,000  Level Memphis Center
01:18PM 36.2339 -92.2481 243° Southwest 423 487 32,000  Level Memphis Center
01:19PM 36.1797 -92.3781 243° Southwest 423 487 32,000  Level Memphis Center
01:20PM 36.1297 -92.5053 244° Southwest 423 487 32,000  Level Memphis Center
01:21PM 36.0753 -92.6347 243° Southwest 423 487 32,000  Level Memphis Center
01:22PM 36.0208 -92.7669 243° Southwest 423 487 32,000  Level Memphis Center
01:23PM 35.9681 -92.8961 243° Southwest 423 487 32,000  Level Memphis Center
01:24PM 35.9133 -93.0250 242° Southwest 423 487 32,000  Level Memphis Center
01:25PM 35.8503 -93.1458 237° Southwest 423 487 32,000  Level Memphis Center
01:26PM 35.7850 -93.2667 236° Southwest 433 498 32,000  Level Memphis Center
01:27PM 35.7258 -93.3769 237° Southwest 433 498 32,000  Level Memphis Center
01:28PM 35.6606 -93.4947 236° Southwest 433 498 32,000  Level Memphis Center
01:29PM 35.5947 -93.6175 237° Southwest 433 498 32,000  Level Memphis Center
01:30PM 35.5311 -93.7347 236° Southwest 433 498 32,000  Level Memphis Center
01:31PM 35.4653 -93.8569 237° Southwest 433 498 32,000  Level Memphis Center
01:32PM 35.4014 -93.9742 236° Southwest 433 498 32,000  Level Memphis Center
01:33PM 35.3375 -94.0908 236° Southwest 433 498 32,000  Level Memphis Center
01:34PM 35.2714 -94.2075 235° Southwest 433 498 32,000  Level Memphis Center
01:35PM 35.2050 -94.3289 236° Southwest 433 498 32,000  Level Memphis Center
01:36PM 35.1408 -94.4403 235° Southwest 433 498 32,000  Level Memphis Center
01:37PM 35.0806 -94.5567 238° Southwest 422 486 32,000  Level Memphis Center
01:37PM 35.0556 -94.6008 235° Southwest 423 487 32,000  Level Fort Worth Center
01:38PM 34.9892 -94.7094 233° Southwest 409 471 32,000  Level Fort Worth Center
01:39PM 34.9014 -94.8033 221° Southwest 409 471 32,000  Level Fort Worth Center
01:40PM 34.8178 -94.8919 221° Southwest 404 465 32,000  Level Fort Worth Center
01:41PM 34.7361 -94.9803 222° Southwest 410 472 32,000  Level Fort Worth Center
01:42PM 34.6522 -95.0686 221° Southwest 403 464 32,000  Level Fort Worth Center
01:43PM 34.5703 -95.1564 221° Southwest 403 464 32,000  Level Fort Worth Center
01:44PM 34.4864 -95.2469 222° Southwest 403 464 32,000 -240 Level Fort Worth Center
01:45PM 34.4044 -95.3344 221° Southwest 403 464 31,600 -480 Descending Fort Worth Center
01:46PM 34.3244 -95.4194 221° Southwest 398 458 31,100 -600 Descending Fort Worth Center
01:47PM 34.2383 -95.5067 220° Southwest 398 458 30,400 -720 Descending Fort Worth Center
01:48PM 34.1519 -95.5964 221° Southwest 404 465 29,700 -780 Descending Fort Worth Center
01:49PM 34.0656 -95.6861 221° Southwest 404 465 28,900 -780 Descending Fort Worth Center
01:50PM 33.9811 -95.7728 220° Southwest 404 465 28,200 -900 Descending Fort Worth Center
01:51PM 33.8986 -95.8594 221° Southwest 404 465 27,100 -1,200 Descending Fort Worth Center
01:52PM 33.8164 -95.9458 221° Southwest 404 465 25,800 -1,680 Descending Fort Worth Center
01:53PM 33.7317 -96.0322 220° Southwest 393 452 23,800 -2,520 Descending Fort Worth Center
01:54PM 33.6469 -96.1208 221° Southwest 403 464 20,900 -2,580 Descending Fort Worth Center
01:55PM 33.5644 -96.2069 221° Southwest 403 464 18,600 -2,040 Descending Fort Worth Center
01:56PM 33.4881 -96.2928 223° Southwest 396 456 16,900 -1,320 Descending Fort Worth Center
01:57PM 33.4178 -96.3781 225° Southwest 366 421 16,000 -1,200 Descending Fort Worth Center
01:58PM 33.3517 -96.4586 226° Southwest 352 405 14,500 -2,040 Descending Fort Worth Center
01:59PM 33.2833 -96.5411 225° Southwest 352 405 12,000 -1,800 Descending Fort Worth Center
02:00PM 33.2128 -96.6239 224° Southwest 358 412 11,000 -540 Descending Fort Worth Center
02:01PM 33.1467 -96.7039 225° Southwest 352 405 11,000  Level Fort Worth Center
02:02PM 33.0761 -96.7836 223° Southwest 352 405 11,000  Level Fort Worth Center
02:03PM 33.0158 -96.8561 225° Southwest 325 374 11,000 -60 Level Fort Worth Center
02:04PM 32.9575 -96.9058 216° Southwest 283 326 10,900 -900 Descending Fort Worth Center
02:05PM 32.8928 -96.9061 180° South 255 293 9,300 -1,740 Descending Fort Worth Center
02:06PM 32.8000 -96.9000 177° South 254 292 7,000 -1,500 Descending Dallas / Fort Worth TRACON
02:07PM 32.7333 -96.9000 180° South 251 289 6,100 -900 Descending Dallas / Fort Worth TRACON
02:08PM 32.6833 -96.9333 209° Southwest 226 260 5,400 -960 Descending Dallas / Fort Worth TRACON
02:09PM 32.6667 -96.9833 248° West 202 232 4,300 -900 Descending Dallas / Fort Worth TRACON
02:10PM 32.7167 -97.0167 331° Northwest 158 182 3,600 -660 Descending Dallas / Fort Worth TRACON
02:11PM 32.7500 -97.0167 360° North 156 180 3,000 -780 Descending Dallas / Fort Worth TRACON